Terminal Aerodrome Forecast
Issued by NWS Atlanta, GA

Home | Current Version | Previous Version | Text Only | Print | Product List | Glossary On
Versions: 1 2 3 4 5 6 7 8 9 10 11 12 13 14 15 16 17 18 19 20 21 22 23 24 25 26 27 28 29 30 31 32 33 34 35 36 37 38 39 40 41 42 43 44 45 46
000
FTAK31 PAJN 301700
TAFAHN
TAF
PAHN 301730Z 3018/0118 29010G20KT P6SM -SHRA VCTS SCT030CB BKN060
      TEMPO 3018/3019 10014G21KT SCT015 BKN025CB
     FM301900 31012G18KT P6SM -SHRA BKN015 OVC025
     FM302100 VRB05KT P6SM VCSH SCT015 OVC030
     FM302300 30005KT P6SM SCT025 BKN050 OVC070
     FM010700 30007KT P6SM SCT050 BKN070
      AMD LTD TO CLD VIS AND WIND=

USA.gov is the U.S. government's official web portal to all federal, state and local government web resources and services.